DAL937 KTUS-KATL
Flight info
| Callsign | DAL937 |
|---|---|
| Flight time | 2h 43m |
| Altitude | 35000 |
| Route | WLDKT4 SSO J166 CME LBB GTH SPS ADM LIT MEMFS HUTCC KNSAW RUSSA GLAVN2 |
| Aircraft | B739/M-SDE2E3FGHIRWXY/LB1 |
Departure
| Time | 2026-05-05 17:56 |
|---|---|
| Airport | Tucson International Airport (KTUS) |
Arrival
| Time | 2026-05-05 20:39 |
|---|---|
| Airport | Hartsfield Jackson Atlanta International Airport (KATL) |
| Time | Latitude | Longitude | Altitude | Speed | Heading |
|---|---|---|---|---|---|
| 2026-05-05 17:33 | 32.12024 | -110.93874 | 2592 ft | 0 kts | 19° |
| 2026-05-05 17:47 | 32.12007 | -110.93882 | 2587 ft | 4 kts | 19° |
| 2026-05-05 17:47 | 32.11981 | -110.93892 | 2587 ft | 4 kts | 19° |
| 2026-05-05 17:47 | 32.11955 | -110.93902 | 2583 ft | 4 kts | 19° |
| 2026-05-05 17:48 | 32.11939 | -110.93909 | 2582 ft | 0 kts | 19° |
| 2026-05-05 17:49 | 32.11940 | -110.93909 | 2582 ft | 1 kts | 19° |
| 2026-05-05 17:49 | 32.11943 | -110.93901 | 2583 ft | 1 kts | 81° |
| 2026-05-05 17:50 | 32.11932 | -110.93902 | 2582 ft | 3 kts | 216° |
| 2026-05-05 17:50 | 32.11899 | -110.93940 | 2591 ft | 10 kts | 225° |
| 2026-05-05 17:50 | 32.11822 | -110.93941 | 2587 ft | 16 kts | 140° |
| 2026-05-05 17:50 | 32.11728 | -110.93832 | 2592 ft | 22 kts | 135° |
| 2026-05-05 17:51 | 32.11619 | -110.93706 | 2601 ft | 22 kts | 135° |
| 2026-05-05 17:51 | 32.11514 | -110.93581 | 2606 ft | 21 kts | 135° |
| 2026-05-05 17:51 | 32.11412 | -110.93461 | 2614 ft | 20 kts | 135° |
| 2026-05-05 17:51 | 32.11312 | -110.93344 | 2616 ft | 20 kts | 135° |
| 2026-05-05 17:52 | 32.11217 | -110.93232 | 2619 ft | 19 kts | 135° |
| 2026-05-05 17:52 | 32.11112 | -110.93111 | 2620 ft | 23 kts | 135° |
| 2026-05-05 17:52 | 32.10999 | -110.92977 | 2624 ft | 23 kts | 135° |
| 2026-05-05 17:52 | 32.10889 | -110.92848 | 2628 ft | 22 kts | 135° |
| 2026-05-05 17:53 | 32.10782 | -110.92723 | 2635 ft | 21 kts | 135° |
| 2026-05-05 17:53 | 32.10679 | -110.92601 | 2639 ft | 21 kts | 135° |
| 2026-05-05 17:53 | 32.10578 | -110.92483 | 2645 ft | 20 kts | 135° |
| 2026-05-05 17:53 | 32.10481 | -110.92368 | 2646 ft | 19 kts | 135° |
| 2026-05-05 17:54 | 32.10388 | -110.92259 | 2649 ft | 19 kts | 135° |
| 2026-05-05 17:54 | 32.10303 | -110.92187 | 2650 ft | 12 kts | 188° |
| 2026-05-05 17:54 | 32.10239 | -110.92253 | 2663 ft | 12 kts | 227° |
| 2026-05-05 17:54 | 32.10249 | -110.92339 | 2663 ft | 12 kts | 312° |
| 2026-05-05 17:55 | 32.10335 | -110.92443 | 2649 ft | 39 kts | 315° |
| 2026-05-05 17:55 | 32.10696 | -110.92866 | 2635 ft | 106 kts | 315° |
| 2026-05-05 17:55 | 32.11357 | -110.93641 | 2612 ft | 159 kts | 315° |
| 2026-05-05 17:55 | 32.12218 | -110.94658 | 2855 ft | 182 kts | 315° |
| 2026-05-05 17:56 | 32.13105 | -110.95694 | 3590 ft | 184 kts | 313° |
| 2026-05-05 17:56 | 32.14040 | -110.96802 | 4051 ft | 201 kts | 314° |
| 2026-05-05 17:56 | 32.15081 | -110.98031 | 4233 ft | 227 kts | 311° |
| 2026-05-05 17:56 | 32.16254 | -110.99417 | 4450 ft | 249 kts | 311° |
| 2026-05-05 17:57 | 32.17525 | -111.00917 | 4789 ft | 267 kts | 311° |
| 2026-05-05 17:57 | 32.18866 | -111.02497 | 5391 ft | 276 kts | 311° |
| 2026-05-05 17:57 | 32.20251 | -111.04074 | 6274 ft | 278 kts | 319° |
| 2026-05-05 17:57 | 32.22033 | -111.05010 | 7054 ft | 287 kts | 350° |
| 2026-05-05 17:58 | 32.24050 | -111.04805 | 7702 ft | 301 kts | 21° |
| 2026-05-05 17:58 | 32.25812 | -111.03442 | 8438 ft | 306 kts | 41° |
| 2026-05-05 17:58 | 32.27428 | -111.01756 | 9126 ft | 314 kts | 42° |
| 2026-05-05 17:58 | 32.29063 | -111.00001 | 9862 ft | 320 kts | 48° |
| 2026-05-05 17:59 | 32.30234 | -110.97764 | 10333 ft | 328 kts | 75° |
| 2026-05-05 17:59 | 32.30628 | -110.95047 | 10529 ft | 346 kts | 89° |
| 2026-05-05 17:59 | 32.30820 | -110.92125 | 10732 ft | 367 kts | 90° |
| 2026-05-05 17:59 | 32.31004 | -110.89064 | 11210 ft | 378 kts | 90° |
| 2026-05-05 18:00 | 32.31198 | -110.85940 | 11852 ft | 383 kts | 90° |
| 2026-05-05 18:00 | 32.31405 | -110.82777 | 12498 ft | 389 kts | 90° |
| 2026-05-05 18:00 | 32.31622 | -110.79573 | 13117 ft | 395 kts | 90° |
| 2026-05-05 18:00 | 32.31847 | -110.76293 | 13664 ft | 404 kts | 90° |
| 2026-05-05 18:01 | 32.32080 | -110.72955 | 14267 ft | 409 kts | 89° |
| 2026-05-05 18:01 | 32.32316 | -110.69591 | 14840 ft | 415 kts | 89° |
| 2026-05-05 18:01 | 32.32555 | -110.66161 | 15371 ft | 420 kts | 89° |
| 2026-05-05 18:01 | 32.32793 | -110.62697 | 15927 ft | 425 kts | 89° |
| 2026-05-05 18:02 | 32.33033 | -110.59188 | 16409 ft | 431 kts | 89° |
| 2026-05-05 18:02 | 32.33155 | -110.55628 | 16907 ft | 435 kts | 95° |
| 2026-05-05 18:02 | 32.33054 | -110.52096 | 17448 ft | 437 kts | 98° |
| 2026-05-05 18:02 | 32.32859 | -110.48495 | 17967 ft | 442 kts | 99° |
| 2026-05-05 18:03 | 32.32638 | -110.44848 | 18376 ft | 447 kts | 98° |
| 2026-05-05 18:03 | 32.32422 | -110.41158 | 18859 ft | 451 kts | 98° |
| 2026-05-05 18:03 | 32.32223 | -110.37445 | 19359 ft | 454 kts | 98° |
| 2026-05-05 18:03 | 32.32039 | -110.33697 | 19828 ft | 459 kts | 98° |
| 2026-05-05 18:04 | 32.31864 | -110.29907 | 20296 ft | 464 kts | 98° |
| 2026-05-05 18:04 | 32.31693 | -110.26086 | 20777 ft | 468 kts | 98° |
| 2026-05-05 18:04 | 32.31528 | -110.22219 | 21213 ft | 473 kts | 98° |
| 2026-05-05 18:04 | 32.31357 | -110.18321 | 21646 ft | 477 kts | 99° |
| 2026-05-05 18:05 | 32.31180 | -110.14389 | 22091 ft | 481 kts | 99° |
| 2026-05-05 18:05 | 32.30999 | -110.10420 | 22536 ft | 485 kts | 99° |
| 2026-05-05 18:05 | 32.30878 | -110.07774 | 22817 ft | 487 kts | 99° |
| 2026-05-05 18:05 | 32.30628 | -110.02378 | 23255 ft | 496 kts | 100° |
| 2026-05-05 18:06 | 32.30502 | -109.99674 | 23491 ft | 500 kts | 100° |
| 2026-05-05 18:06 | 32.30374 | -109.96899 | 23788 ft | 500 kts | 100° |
| 2026-05-05 18:06 | 32.30122 | -109.91459 | 24301 ft | 503 kts | 100° |
| 2026-05-05 18:06 | 32.29927 | -109.87318 | 24592 ft | 507 kts | 100° |
| 2026-05-05 18:07 | 32.29728 | -109.83140 | 24922 ft | 511 kts | 100° |
| 2026-05-05 18:07 | 32.29528 | -109.78941 | 25272 ft | 513 kts | 101° |
| 2026-05-05 18:07 | 32.29325 | -109.74711 | 25601 ft | 517 kts | 101° |
| 2026-05-05 18:07 | 32.29118 | -109.70456 | 25877 ft | 521 kts | 101° |
| 2026-05-05 18:08 | 32.28909 | -109.66163 | 26181 ft | 524 kts | 101° |
| 2026-05-05 18:08 | 32.28698 | -109.61861 | 26549 ft | 525 kts | 101° |
| 2026-05-05 18:08 | 32.28486 | -109.57540 | 26921 ft | 527 kts | 101° |
| 2026-05-05 18:08 | 32.28271 | -109.53209 | 27252 ft | 529 kts | 101° |
| 2026-05-05 18:09 | 32.28052 | -109.48858 | 27540 ft | 532 kts | 101° |
| 2026-05-05 18:09 | 32.27831 | -109.44488 | 27790 ft | 535 kts | 101° |
| 2026-05-05 18:09 | 32.27608 | -109.40084 | 28124 ft | 536 kts | 101° |
| 2026-05-05 18:09 | 32.27384 | -109.35676 | 28440 ft | 538 kts | 101° |
| 2026-05-05 18:10 | 32.27165 | -109.31312 | 28730 ft | 542 kts | 99° |
| 2026-05-05 18:10 | 32.27433 | -109.26815 | 28985 ft | 558 kts | 82° |
| 2026-05-05 18:10 | 32.28704 | -109.22472 | 29364 ft | 564 kts | 63° |
| 2026-05-05 18:10 | 32.30709 | -109.18481 | 29887 ft | 562 kts | 58° |
| 2026-05-05 18:11 | 32.32809 | -109.14599 | 30288 ft | 561 kts | 57° |
| 2026-05-05 18:11 | 32.34937 | -109.10709 | 30563 ft | 563 kts | 57° |
| 2026-05-05 18:11 | 32.37057 | -109.06807 | 30879 ft | 564 kts | 57° |
| 2026-05-05 18:11 | 32.39162 | -109.02878 | 31199 ft | 565 kts | 58° |
| 2026-05-05 18:12 | 32.41241 | -108.98940 | 31528 ft | 565 kts | 58° |
| 2026-05-05 18:12 | 32.43309 | -108.94984 | 31827 ft | 566 kts | 58° |
| 2026-05-05 18:12 | 32.45377 | -108.91004 | 32100 ft | 567 kts | 59° |
| 2026-05-05 18:12 | 32.47444 | -108.87015 | 32379 ft | 568 kts | 59° |
| 2026-05-05 18:13 | 32.49510 | -108.83026 | 32701 ft | 569 kts | 59° |
| 2026-05-05 18:13 | 32.51581 | -108.79027 | 33045 ft | 569 kts | 59° |
| 2026-05-05 18:13 | 32.53652 | -108.75029 | 33299 ft | 570 kts | 59° |
| 2026-05-05 18:13 | 32.55731 | -108.71014 | 33515 ft | 573 kts | 59° |
| 2026-05-05 18:14 | 32.57793 | -108.67029 | 33762 ft | 574 kts | 59° |
| 2026-05-05 18:14 | 32.59881 | -108.62991 | 34050 ft | 574 kts | 59° |
| 2026-05-05 18:14 | 32.61963 | -108.58959 | 34329 ft | 573 kts | 59° |
| 2026-05-05 18:14 | 32.64047 | -108.54920 | 34636 ft | 572 kts | 59° |
| 2026-05-05 18:15 | 32.66122 | -108.50892 | 34923 ft | 572 kts | 59° |
| 2026-05-05 18:15 | 32.70285 | -108.42797 | 34972 ft | 574 kts | 59° |
| 2026-05-05 18:16 | 32.74437 | -108.34708 | 35007 ft | 571 kts | 59° |
| 2026-05-05 18:16 | 32.78552 | -108.26671 | 35017 ft | 568 kts | 59° |
| 2026-05-05 18:17 | 32.82655 | -108.18642 | 35013 ft | 567 kts | 59° |
| 2026-05-05 18:17 | 32.86713 | -108.10683 | 34991 ft | 567 kts | 59° |
| 2026-05-05 18:18 | 32.90801 | -108.02648 | 34960 ft | 568 kts | 59° |
| 2026-05-05 18:18 | 32.94895 | -107.94582 | 34918 ft | 569 kts | 59° |
| 2026-05-05 18:19 | 32.98989 | -107.86501 | 34886 ft | 570 kts | 59° |
| 2026-05-05 18:19 | 33.03080 | -107.78407 | 34876 ft | 570 kts | 59° |
| 2026-05-05 18:20 | 33.07162 | -107.70312 | 34872 ft | 568 kts | 59° |
| 2026-05-05 18:20 | 33.11229 | -107.62228 | 34892 ft | 568 kts | 59° |
| 2026-05-05 18:21 | 33.15296 | -107.54127 | 34911 ft | 569 kts | 59° |
| 2026-05-05 18:21 | 33.19364 | -107.46007 | 34934 ft | 570 kts | 59° |
| 2026-05-05 18:22 | 33.23407 | -107.37918 | 34999 ft | 570 kts | 59° |
| 2026-05-05 18:22 | 33.26987 | -107.29432 | 34992 ft | 567 kts | 75° |
| 2026-05-05 18:23 | 33.28682 | -107.20399 | 34984 ft | 555 kts | 93° |
| 2026-05-05 18:23 | 33.28931 | -107.11245 | 34964 ft | 550 kts | 96° |
| 2026-05-05 18:24 | 33.29096 | -107.02083 | 34890 ft | 552 kts | 96° |
| 2026-05-05 18:24 | 33.29318 | -106.92908 | 34851 ft | 552 kts | 96° |
| 2026-05-05 18:25 | 33.29574 | -106.83736 | 34801 ft | 552 kts | 96° |
| 2026-05-05 18:25 | 33.29831 | -106.74557 | 34807 ft | 552 kts | 96° |
| 2026-05-05 18:26 | 33.30077 | -106.65378 | 34798 ft | 552 kts | 96° |
| 2026-05-05 18:26 | 33.30312 | -106.56210 | 34810 ft | 552 kts | 96° |
| 2026-05-05 18:27 | 33.30540 | -106.47031 | 34805 ft | 551 kts | 96° |
| 2026-05-05 18:27 | 33.30760 | -106.37942 | 34821 ft | 550 kts | 96° |
| 2026-05-05 18:28 | 33.31077 | -106.24211 | 34823 ft | 552 kts | 96° |
| 2026-05-05 18:28 | 33.31281 | -106.15023 | 34841 ft | 553 kts | 96° |
| 2026-05-05 18:29 | 33.31479 | -106.05820 | 34860 ft | 555 kts | 96° |
| 2026-05-05 18:29 | 33.31671 | -105.96592 | 34781 ft | 556 kts | 96° |
| 2026-05-05 18:30 | 33.31859 | -105.87350 | 34889 ft | 555 kts | 96° |
| 2026-05-05 18:30 | 33.32036 | -105.78172 | 34939 ft | 556 kts | 96° |
| 2026-05-05 18:31 | 33.32210 | -105.68853 | 34974 ft | 557 kts | 96° |
| 2026-05-05 18:31 | 33.32375 | -105.59593 | 34992 ft | 556 kts | 96° |
| 2026-05-05 18:32 | 33.32532 | -105.50423 | 35016 ft | 555 kts | 96° |
| 2026-05-05 18:32 | 33.32684 | -105.41214 | 34991 ft | 554 kts | 96° |
| 2026-05-05 18:33 | 33.32829 | -105.32012 | 34914 ft | 553 kts | 96° |
| 2026-05-05 18:33 | 33.32965 | -105.22821 | 34873 ft | 553 kts | 96° |
| 2026-05-05 18:34 | 33.33094 | -105.13626 | 34780 ft | 554 kts | 96° |
| 2026-05-05 18:34 | 33.33217 | -105.04397 | 34758 ft | 556 kts | 96° |
| 2026-05-05 18:35 | 33.33335 | -104.95132 | 34754 ft | 558 kts | 96° |
| 2026-05-05 18:35 | 33.33447 | -104.85845 | 34786 ft | 558 kts | 96° |
| 2026-05-05 18:36 | 33.33551 | -104.76621 | 34849 ft | 559 kts | 96° |
| 2026-05-05 18:36 | 33.33649 | -104.67296 | 34859 ft | 561 kts | 96° |
| 2026-05-05 18:37 | 33.34104 | -104.57941 | 34913 ft | 570 kts | 86° |
| 2026-05-05 18:37 | 33.35504 | -104.48582 | 34919 ft | 573 kts | 84° |
| 2026-05-05 18:38 | 33.37011 | -104.39195 | 34884 ft | 574 kts | 84° |
| 2026-05-05 18:38 | 33.38434 | -104.29804 | 34843 ft | 574 kts | 84° |
| 2026-05-05 18:39 | 33.39790 | -104.20411 | 34783 ft | 572 kts | 85° |
| 2026-05-05 18:39 | 33.41122 | -104.11042 | 34736 ft | 570 kts | 85° |
| 2026-05-05 18:40 | 33.42450 | -104.01701 | 34755 ft | 568 kts | 85° |
| 2026-05-05 18:40 | 33.43772 | -103.92379 | 34761 ft | 567 kts | 85° |
| 2026-05-05 18:41 | 33.45084 | -103.83084 | 34759 ft | 566 kts | 84° |
| 2026-05-05 18:41 | 33.46389 | -103.73786 | 34767 ft | 566 kts | 85° |
| 2026-05-05 18:42 | 33.47686 | -103.64488 | 34772 ft | 566 kts | 85° |
| 2026-05-05 18:42 | 33.48971 | -103.55222 | 34778 ft | 567 kts | 85° |
| 2026-05-05 18:43 | 33.50256 | -103.45901 | 34767 ft | 569 kts | 84° |
| 2026-05-05 18:43 | 33.51540 | -103.36538 | 34783 ft | 569 kts | 85° |
| 2026-05-05 18:44 | 33.52819 | -103.27162 | 34770 ft | 571 kts | 85° |
| 2026-05-05 18:44 | 33.54094 | -103.17760 | 34778 ft | 571 kts | 85° |
| 2026-05-05 18:45 | 33.55361 | -103.08357 | 34766 ft | 571 kts | 84° |
| 2026-05-05 18:45 | 33.56621 | -102.98955 | 34762 ft | 571 kts | 84° |
| 2026-05-05 18:46 | 33.57874 | -102.89556 | 34767 ft | 570 kts | 84° |
| 2026-05-05 18:46 | 33.59117 | -102.80164 | 34768 ft | 569 kts | 85° |
| 2026-05-05 18:47 | 33.60350 | -102.70797 | 34807 ft | 568 kts | 84° |
| 2026-05-05 18:47 | 33.61573 | -102.61450 | 34848 ft | 567 kts | 84° |
| 2026-05-05 18:48 | 33.62777 | -102.52185 | 34888 ft | 565 kts | 84° |
| 2026-05-05 18:48 | 33.63988 | -102.42813 | 34919 ft | 564 kts | 84° |
| 2026-05-05 18:49 | 33.65185 | -102.33495 | 34917 ft | 564 kts | 84° |
| 2026-05-05 18:49 | 33.66375 | -102.24172 | 34886 ft | 564 kts | 84° |
| 2026-05-05 18:50 | 33.67549 | -102.14916 | 34807 ft | 565 kts | 84° |
| 2026-05-05 18:50 | 33.68724 | -102.05595 | 34850 ft | 565 kts | 84° |
| 2026-05-05 18:51 | 33.69896 | -101.96253 | 34895 ft | 566 kts | 84° |
| 2026-05-05 18:51 | 33.70876 | -101.86884 | 34908 ft | 565 kts | 89° |
| 2026-05-05 18:52 | 33.71354 | -101.77462 | 34911 ft | 565 kts | 91° |
| 2026-05-05 18:52 | 33.71670 | -101.69630 | 34894 ft | 565 kts | 91° |
| 2026-05-05 18:53 | 33.72094 | -101.60193 | 34853 ft | 566 kts | 90° |
| 2026-05-05 18:53 | 33.72560 | -101.50761 | 34814 ft | 566 kts | 90° |
| 2026-05-05 18:54 | 33.73031 | -101.41332 | 34788 ft | 565 kts | 90° |
| 2026-05-05 18:54 | 33.73491 | -101.31895 | 34779 ft | 565 kts | 90° |
| 2026-05-05 18:55 | 33.73938 | -101.22483 | 34786 ft | 564 kts | 89° |
| 2026-05-05 18:55 | 33.74376 | -101.13087 | 34789 ft | 563 kts | 90° |
| 2026-05-05 18:56 | 33.74807 | -101.03690 | 34787 ft | 562 kts | 90° |
| 2026-05-05 18:56 | 33.75230 | -100.94320 | 34792 ft | 562 kts | 90° |
| 2026-05-05 18:57 | 33.75643 | -100.85011 | 34799 ft | 561 kts | 90° |
| 2026-05-05 18:57 | 33.76052 | -100.75648 | 34800 ft | 560 kts | 90° |
| 2026-05-05 18:58 | 33.76453 | -100.66290 | 34799 ft | 560 kts | 90° |
| 2026-05-05 18:58 | 33.76848 | -100.56930 | 34793 ft | 561 kts | 90° |
| 2026-05-05 18:59 | 33.77235 | -100.47561 | 34790 ft | 561 kts | 90° |
| 2026-05-05 18:59 | 33.77617 | -100.38193 | 34746 ft | 561 kts | 90° |
| 2026-05-05 19:00 | 33.78220 | -100.28840 | 34785 ft | 563 kts | 84° |
| 2026-05-05 19:00 | 33.79423 | -100.19524 | 34828 ft | 565 kts | 82° |
| 2026-05-05 19:01 | 33.80720 | -100.10187 | 34781 ft | 567 kts | 82° |
| 2026-05-05 19:01 | 33.81942 | -100.00821 | 34779 ft | 567 kts | 83° |
| 2026-05-05 19:02 | 33.83105 | -99.91438 | 34767 ft | 567 kts | 83° |
| 2026-05-05 19:02 | 33.84253 | -99.82039 | 34750 ft | 567 kts | 83° |
| 2026-05-05 19:03 | 33.85397 | -99.72663 | 34764 ft | 567 kts | 83° |
| 2026-05-05 19:03 | 33.86531 | -99.63344 | 34745 ft | 566 kts | 83° |
| 2026-05-05 19:04 | 33.87664 | -99.53986 | 34755 ft | 566 kts | 83° |
| 2026-05-05 19:04 | 33.88791 | -99.44604 | 34741 ft | 566 kts | 83° |
| 2026-05-05 19:05 | 33.89909 | -99.35239 | 34747 ft | 565 kts | 83° |
| 2026-05-05 19:05 | 33.91019 | -99.25882 | 34743 ft | 564 kts | 83° |
| 2026-05-05 19:06 | 33.92121 | -99.16520 | 34735 ft | 564 kts | 83° |
| 2026-05-05 19:06 | 33.93214 | -99.07174 | 34733 ft | 563 kts | 83° |
| 2026-05-05 19:07 | 33.94301 | -98.97825 | 34741 ft | 563 kts | 83° |
| 2026-05-05 19:07 | 33.95378 | -98.88496 | 34749 ft | 563 kts | 83° |
| 2026-05-05 19:08 | 33.96450 | -98.79141 | 34766 ft | 563 kts | 83° |
| 2026-05-05 19:08 | 33.97506 | -98.69867 | 34793 ft | 563 kts | 83° |
| 2026-05-05 19:09 | 33.98563 | -98.60525 | 34821 ft | 563 kts | 83° |
| 2026-05-05 19:09 | 33.99880 | -98.51224 | 34824 ft | 563 kts | 79° |
| 2026-05-05 19:10 | 34.01457 | -98.41966 | 34744 ft | 563 kts | 78° |
| 2026-05-05 19:10 | 34.03029 | -98.32708 | 34735 ft | 564 kts | 78° |
| 2026-05-05 19:11 | 34.04544 | -98.23428 | 34748 ft | 564 kts | 79° |
| 2026-05-05 19:11 | 34.06030 | -98.14138 | 34754 ft | 565 kts | 79° |
| 2026-05-05 19:12 | 34.07510 | -98.04834 | 34753 ft | 565 kts | 79° |
| 2026-05-05 19:12 | 34.08979 | -97.95582 | 34760 ft | 565 kts | 79° |
| 2026-05-05 19:13 | 34.10452 | -97.86272 | 34749 ft | 565 kts | 79° |
| 2026-05-05 19:13 | 34.11919 | -97.76954 | 34740 ft | 565 kts | 79° |
| 2026-05-05 19:14 | 34.13378 | -97.67629 | 34740 ft | 565 kts | 79° |
| 2026-05-05 19:14 | 34.14827 | -97.58320 | 34719 ft | 565 kts | 79° |
| 2026-05-05 19:15 | 34.16270 | -97.49004 | 34726 ft | 564 kts | 78° |
| 2026-05-05 19:15 | 34.17706 | -97.39687 | 34724 ft | 564 kts | 79° |
| 2026-05-05 19:16 | 34.19133 | -97.30374 | 34731 ft | 563 kts | 79° |
| 2026-05-05 19:16 | 34.20553 | -97.21068 | 34724 ft | 563 kts | 79° |
| 2026-05-05 19:17 | 34.21900 | -97.11757 | 34728 ft | 563 kts | 81° |
| 2026-05-05 19:17 | 34.22950 | -97.02386 | 34732 ft | 563 kts | 83° |
| 2026-05-05 19:18 | 34.23927 | -96.93004 | 34727 ft | 563 kts | 83° |
| 2026-05-05 19:18 | 34.24939 | -96.83624 | 34737 ft | 563 kts | 82° |
| 2026-05-05 19:19 | 34.25979 | -96.74246 | 34722 ft | 563 kts | 82° |
| 2026-05-05 19:19 | 34.27023 | -96.64850 | 34721 ft | 563 kts | 82° |
| 2026-05-05 19:20 | 34.28057 | -96.55455 | 34717 ft | 564 kts | 82° |
| 2026-05-05 19:20 | 34.29072 | -96.46123 | 34722 ft | 564 kts | 82° |
| 2026-05-05 19:21 | 34.30087 | -96.36717 | 34719 ft | 564 kts | 82° |
| 2026-05-05 19:21 | 34.31095 | -96.27311 | 34720 ft | 563 kts | 82° |
| 2026-05-05 19:22 | 34.32096 | -96.17908 | 34772 ft | 563 kts | 82° |
| 2026-05-05 19:22 | 34.33090 | -96.08499 | 34727 ft | 564 kts | 82° |
| 2026-05-05 19:23 | 34.34078 | -95.99072 | 34734 ft | 564 kts | 82° |
| 2026-05-05 19:23 | 34.35057 | -95.89664 | 34730 ft | 564 kts | 82° |
| 2026-05-05 19:24 | 34.36029 | -95.80241 | 34730 ft | 564 kts | 82° |
| 2026-05-05 19:24 | 34.36993 | -95.70830 | 34740 ft | 563 kts | 82° |
| 2026-05-05 19:25 | 34.37951 | -95.61411 | 34745 ft | 563 kts | 81° |
| 2026-05-05 19:25 | 34.38900 | -95.52006 | 34739 ft | 564 kts | 81° |
| 2026-05-05 19:26 | 34.39843 | -95.42582 | 34735 ft | 564 kts | 82° |
| 2026-05-05 19:26 | 34.40780 | -95.33155 | 34742 ft | 564 kts | 82° |
| 2026-05-05 19:27 | 34.41702 | -95.23795 | 34738 ft | 563 kts | 81° |
| 2026-05-05 19:27 | 34.42621 | -95.14387 | 34754 ft | 564 kts | 81° |
| 2026-05-05 19:28 | 34.43537 | -95.04939 | 34737 ft | 564 kts | 82° |
| 2026-05-05 19:28 | 34.44444 | -94.95510 | 34741 ft | 564 kts | 82° |
| 2026-05-05 19:29 | 34.45343 | -94.86078 | 34758 ft | 563 kts | 81° |
| 2026-05-05 19:29 | 34.46233 | -94.76663 | 34751 ft | 562 kts | 81° |
| 2026-05-05 19:30 | 34.47117 | -94.67243 | 34744 ft | 562 kts | 82° |
| 2026-05-05 19:30 | 34.47990 | -94.57852 | 34761 ft | 561 kts | 82° |
| 2026-05-05 19:31 | 34.48856 | -94.48460 | 34775 ft | 560 kts | 81° |
| 2026-05-05 19:31 | 34.49714 | -94.39078 | 34779 ft | 560 kts | 81° |
| 2026-05-05 19:32 | 34.50566 | -94.29688 | 34785 ft | 561 kts | 82° |
| 2026-05-05 19:32 | 34.51406 | -94.20339 | 34786 ft | 561 kts | 82° |
| 2026-05-05 19:33 | 34.52243 | -94.10940 | 34786 ft | 560 kts | 81° |
| 2026-05-05 19:33 | 34.53073 | -94.01543 | 34787 ft | 560 kts | 81° |
| 2026-05-05 19:34 | 34.53896 | -93.92139 | 34778 ft | 560 kts | 81° |
| 2026-05-05 19:35 | 34.55116 | -93.78038 | 34803 ft | 560 kts | 81° |
| 2026-05-05 19:35 | 34.55920 | -93.68639 | 34806 ft | 560 kts | 81° |
| 2026-05-05 19:36 | 34.56718 | -93.59229 | 34790 ft | 560 kts | 81° |
| 2026-05-05 19:36 | 34.57507 | -93.49837 | 34797 ft | 560 kts | 81° |
| 2026-05-05 19:37 | 34.58289 | -93.40447 | 34792 ft | 559 kts | 82° |
| 2026-05-05 19:37 | 34.59063 | -93.31051 | 34798 ft | 559 kts | 82° |
| 2026-05-05 19:38 | 34.59829 | -93.21667 | 34799 ft | 558 kts | 82° |
| 2026-05-05 19:38 | 34.60589 | -93.12282 | 34809 ft | 558 kts | 82° |
| 2026-05-05 19:39 | 34.61340 | -93.02903 | 34811 ft | 558 kts | 81° |
| 2026-05-05 19:39 | 34.61959 | -92.95101 | 34802 ft | 558 kts | 81° |
| 2026-05-05 19:40 | 34.62817 | -92.84191 | 34814 ft | 558 kts | 81° |
| 2026-05-05 19:40 | 34.63547 | -92.74800 | 34816 ft | 558 kts | 81° |
| 2026-05-05 19:41 | 34.64152 | -92.66946 | 34813 ft | 558 kts | 81° |
| 2026-05-05 19:41 | 34.64869 | -92.57553 | 34831 ft | 558 kts | 81° |
| 2026-05-05 19:42 | 34.65578 | -92.48166 | 34811 ft | 558 kts | 81° |
| 2026-05-05 19:42 | 34.66279 | -92.38790 | 34816 ft | 557 kts | 81° |
| 2026-05-05 19:43 | 34.66972 | -92.29418 | 34822 ft | 557 kts | 81° |
| 2026-05-05 19:43 | 34.67655 | -92.20107 | 34822 ft | 557 kts | 81° |
| 2026-05-05 19:44 | 34.68773 | -92.10846 | 34827 ft | 552 kts | 73° |
| 2026-05-05 19:44 | 34.70337 | -92.01717 | 34821 ft | 551 kts | 72° |
| 2026-05-05 19:45 | 34.71910 | -91.92604 | 34826 ft | 551 kts | 73° |
| 2026-05-05 19:45 | 34.73410 | -91.83460 | 34834 ft | 552 kts | 73° |
| 2026-05-05 19:46 | 34.74868 | -91.74286 | 34838 ft | 553 kts | 73° |
| 2026-05-05 19:46 | 34.76316 | -91.65105 | 34842 ft | 553 kts | 74° |
| 2026-05-05 19:47 | 34.77763 | -91.55921 | 34838 ft | 553 kts | 74° |
| 2026-05-05 19:47 | 34.79207 | -91.46728 | 34847 ft | 553 kts | 73° |
| 2026-05-05 19:48 | 34.80643 | -91.37545 | 34835 ft | 553 kts | 73° |
| 2026-05-05 19:48 | 34.82072 | -91.28352 | 34837 ft | 552 kts | 73° |
| 2026-05-05 19:49 | 34.83494 | -91.19159 | 34825 ft | 552 kts | 73° |
| 2026-05-05 19:49 | 34.84897 | -91.10042 | 34836 ft | 552 kts | 73° |
| 2026-05-05 19:50 | 34.86303 | -91.00858 | 34830 ft | 551 kts | 73° |
| 2026-05-05 19:50 | 34.87701 | -90.91675 | 34829 ft | 551 kts | 73° |
| 2026-05-05 19:51 | 34.89089 | -90.82513 | 34829 ft | 550 kts | 74° |
| 2026-05-05 19:51 | 34.90480 | -90.73278 | 34834 ft | 550 kts | 73° |
| 2026-05-05 19:52 | 34.91844 | -90.64180 | 34830 ft | 550 kts | 73° |
| 2026-05-05 19:52 | 34.93211 | -90.55004 | 34838 ft | 550 kts | 73° |
| 2026-05-05 19:53 | 34.94572 | -90.45828 | 34845 ft | 549 kts | 73° |
| 2026-05-05 19:53 | 34.95924 | -90.36657 | 34843 ft | 549 kts | 73° |
| 2026-05-05 19:54 | 34.97266 | -90.27504 | 34845 ft | 549 kts | 73° |
| 2026-05-05 19:54 | 34.98604 | -90.18331 | 34845 ft | 549 kts | 73° |
| 2026-05-05 19:55 | 34.99935 | -90.09165 | 34861 ft | 550 kts | 73° |
| 2026-05-05 19:55 | 35.01104 | -89.99923 | 34864 ft | 556 kts | 82° |
| 2026-05-05 19:56 | 35.00625 | -89.90525 | 34879 ft | 563 kts | 98° |
| 2026-05-05 19:56 | 34.99210 | -89.81118 | 34869 ft | 564 kts | 99° |
| 2026-05-05 19:57 | 34.97786 | -89.71737 | 34875 ft | 563 kts | 98° |
| 2026-05-05 19:57 | 34.96426 | -89.62343 | 34875 ft | 562 kts | 98° |
| 2026-05-05 19:58 | 34.95096 | -89.52951 | 34877 ft | 561 kts | 98° |
| 2026-05-05 19:58 | 34.93765 | -89.43585 | 34880 ft | 561 kts | 98° |
| 2026-05-05 19:59 | 34.92420 | -89.34224 | 34889 ft | 560 kts | 98° |
| 2026-05-05 19:59 | 34.91075 | -89.24938 | 34890 ft | 560 kts | 98° |
| 2026-05-05 20:00 | 34.89705 | -89.15539 | 34902 ft | 560 kts | 98° |
| 2026-05-05 20:00 | 34.88341 | -89.06215 | 34911 ft | 560 kts | 98° |
| 2026-05-05 20:01 | 34.86975 | -88.96941 | 34915 ft | 560 kts | 98° |
| 2026-05-05 20:01 | 34.85592 | -88.87600 | 34918 ft | 560 kts | 98° |
| 2026-05-05 20:02 | 34.84204 | -88.78276 | 34922 ft | 560 kts | 97° |
| 2026-05-05 20:02 | 34.82809 | -88.68955 | 34918 ft | 560 kts | 98° |
| 2026-05-05 20:03 | 34.81406 | -88.59628 | 34916 ft | 560 kts | 98° |
| 2026-05-05 20:03 | 34.79997 | -88.50319 | 34916 ft | 560 kts | 98° |
| 2026-05-05 20:04 | 34.78578 | -88.40991 | 34931 ft | 560 kts | 98° |
| 2026-05-05 20:04 | 34.77155 | -88.31681 | 34931 ft | 560 kts | 98° |
| 2026-05-05 20:05 | 34.75726 | -88.22384 | 34933 ft | 559 kts | 98° |
| 2026-05-05 20:05 | 34.74292 | -88.13106 | 34940 ft | 559 kts | 98° |
| 2026-05-05 20:06 | 34.72849 | -88.03822 | 34949 ft | 558 kts | 98° |
| 2026-05-05 20:06 | 34.71402 | -87.94555 | 34922 ft | 557 kts | 97° |
| 2026-05-05 20:07 | 34.69951 | -87.85307 | 34931 ft | 557 kts | 98° |
| 2026-05-05 20:07 | 34.68496 | -87.76089 | 34940 ft | 556 kts | 98° |
| 2026-05-05 20:08 | 34.67033 | -87.66860 | 34947 ft | 557 kts | 97° |
| 2026-05-05 20:08 | 34.65562 | -87.57629 | 34934 ft | 556 kts | 98° |
| 2026-05-05 20:09 | 34.64096 | -87.48475 | 34950 ft | 556 kts | 98° |
| 2026-05-05 20:09 | 34.62582 | -87.39246 | 34945 ft | 558 kts | 99° |
| 2026-05-05 20:10 | 34.60871 | -87.30046 | 34956 ft | 558 kts | 100° |
| 2026-05-05 20:10 | 34.59140 | -87.20897 | 34967 ft | 556 kts | 99° |
| 2026-05-05 20:11 | 34.57438 | -87.11728 | 34970 ft | 556 kts | 99° |
| 2026-05-05 20:11 | 34.55831 | -87.02573 | 34970 ft | 556 kts | 98° |
| 2026-05-05 20:12 | 34.54300 | -86.93379 | 34970 ft | 555 kts | 99° |
| 2026-05-05 20:12 | 34.52116 | -86.84386 | 34974 ft | 556 kts | 107° |
| 2026-05-05 20:13 | 34.49629 | -86.75536 | 34959 ft | 554 kts | 106° |
| 2026-05-05 20:13 | 34.47310 | -86.66652 | 34971 ft | 552 kts | 105° |
| 2026-05-05 20:14 | 34.45002 | -86.57788 | 34979 ft | 551 kts | 105° |
| 2026-05-05 20:14 | 34.42681 | -86.48949 | 34999 ft | 550 kts | 105° |
| 2026-05-05 20:15 | 34.40350 | -86.40113 | 34986 ft | 549 kts | 105° |
| 2026-05-05 20:15 | 34.38018 | -86.31290 | 35000 ft | 552 kts | 105° |
| 2026-05-05 20:16 | 34.35683 | -86.22478 | 34546 ft | 559 kts | 105° |
| 2026-05-05 20:16 | 34.34488 | -86.17981 | 33821 ft | 563 kts | 105° |
| 2026-05-05 20:16 | 34.33287 | -86.13465 | 32973 ft | 563 kts | 105° |
| 2026-05-05 20:16 | 34.32106 | -86.08959 | 32134 ft | 562 kts | 105° |
| 2026-05-05 20:17 | 34.30944 | -86.04468 | 31461 ft | 556 kts | 106° |
| 2026-05-05 20:17 | 34.29801 | -86.00038 | 31042 ft | 546 kts | 106° |
| 2026-05-05 20:17 | 34.28680 | -85.95696 | 30640 ft | 536 kts | 106° |
| 2026-05-05 20:17 | 34.27573 | -85.91426 | 30164 ft | 528 kts | 106° |
| 2026-05-05 20:18 | 34.26479 | -85.87216 | 29530 ft | 523 kts | 107° |
| 2026-05-05 20:18 | 34.25389 | -85.83033 | 28680 ft | 522 kts | 107° |
| 2026-05-05 20:18 | 34.24294 | -85.78845 | 27795 ft | 522 kts | 107° |
| 2026-05-05 20:18 | 34.23203 | -85.74680 | 27093 ft | 518 kts | 107° |
| 2026-05-05 20:19 | 34.22120 | -85.70551 | 26510 ft | 512 kts | 107° |
| 2026-05-05 20:19 | 34.21049 | -85.66474 | 25948 ft | 506 kts | 107° |
| 2026-05-05 20:19 | 34.19988 | -85.62440 | 25348 ft | 501 kts | 108° |
| 2026-05-05 20:19 | 34.18935 | -85.58441 | 24743 ft | 497 kts | 108° |
| 2026-05-05 20:20 | 34.17887 | -85.54471 | 24149 ft | 494 kts | 108° |
| 2026-05-05 20:20 | 34.16848 | -85.50537 | 23586 ft | 490 kts | 108° |
| 2026-05-05 20:20 | 34.15817 | -85.46638 | 22954 ft | 485 kts | 108° |
| 2026-05-05 20:20 | 34.14795 | -85.42778 | 22414 ft | 478 kts | 108° |
| 2026-05-05 20:21 | 34.13789 | -85.38981 | 21893 ft | 471 kts | 108° |
| 2026-05-05 20:21 | 34.12810 | -85.35237 | 21345 ft | 466 kts | 108° |
| 2026-05-05 20:21 | 34.11850 | -85.31521 | 20814 ft | 460 kts | 108° |
| 2026-05-05 20:21 | 34.10906 | -85.27861 | 20320 ft | 454 kts | 108° |
| 2026-05-05 20:22 | 34.09972 | -85.24247 | 19839 ft | 448 kts | 108° |
| 2026-05-05 20:22 | 34.09048 | -85.20684 | 19364 ft | 442 kts | 108° |
| 2026-05-05 20:22 | 34.08144 | -85.17207 | 18890 ft | 437 kts | 108° |
| 2026-05-05 20:22 | 34.07238 | -85.13727 | 18405 ft | 433 kts | 108° |
| 2026-05-05 20:23 | 34.06341 | -85.10289 | 17878 ft | 428 kts | 108° |
| 2026-05-05 20:23 | 34.05394 | -85.06857 | 17290 ft | 423 kts | 114° |
| 2026-05-05 20:23 | 34.03864 | -85.03932 | 16660 ft | 416 kts | 135° |
| 2026-05-05 20:23 | 34.01769 | -85.01578 | 16122 ft | 409 kts | 143° |
| 2026-05-05 20:24 | 33.99590 | -84.99393 | 15600 ft | 405 kts | 144° |
| 2026-05-05 20:24 | 33.97433 | -84.97236 | 15098 ft | 401 kts | 143° |
| 2026-05-05 20:24 | 33.95312 | -84.95073 | 14600 ft | 397 kts | 143° |
| 2026-05-05 20:24 | 33.93905 | -84.93619 | 14284 ft | 394 kts | 143° |
| 2026-05-05 20:25 | 33.91860 | -84.91494 | 14097 ft | 382 kts | 143° |
| 2026-05-05 20:25 | 33.89266 | -84.88797 | 14025 ft | 361 kts | 144° |
| 2026-05-05 20:25 | 33.87401 | -84.86864 | 14010 ft | 346 kts | 144° |
| 2026-05-05 20:25 | 33.85613 | -84.85014 | 14004 ft | 331 kts | 144° |
| 2026-05-05 20:26 | 33.83901 | -84.83244 | 13889 ft | 322 kts | 144° |
| 2026-05-05 20:26 | 33.82770 | -84.82080 | 13711 ft | 323 kts | 144° |
| 2026-05-05 20:26 | 33.81005 | -84.80271 | 13496 ft | 348 kts | 144° |
| 2026-05-05 20:26 | 33.79075 | -84.78292 | 13278 ft | 379 kts | 143° |
| 2026-05-05 20:27 | 33.77044 | -84.76199 | 13047 ft | 387 kts | 143° |
| 2026-05-05 20:27 | 33.75052 | -84.74005 | 12767 ft | 390 kts | 134° |
| 2026-05-05 20:27 | 33.73701 | -84.71219 | 12507 ft | 392 kts | 111° |
| 2026-05-05 20:27 | 33.73174 | -84.68027 | 12260 ft | 390 kts | 92° |
| 2026-05-05 20:28 | 33.73201 | -84.64775 | 12081 ft | 388 kts | 89° |
| 2026-05-05 20:28 | 33.73259 | -84.61533 | 12024 ft | 390 kts | 89° |
| 2026-05-05 20:28 | 33.73292 | -84.58262 | 12014 ft | 391 kts | 90° |
| 2026-05-05 20:28 | 33.73303 | -84.55002 | 12010 ft | 390 kts | 90° |
| 2026-05-05 20:29 | 33.73302 | -84.51749 | 12002 ft | 388 kts | 90° |
| 2026-05-05 20:29 | 33.73299 | -84.48585 | 11887 ft | 370 kts | 90° |
| 2026-05-05 20:29 | 33.73297 | -84.45650 | 11758 ft | 350 kts | 90° |
| 2026-05-05 20:29 | 33.73296 | -84.42802 | 11627 ft | 331 kts | 90° |
| 2026-05-05 20:30 | 33.73296 | -84.40111 | 11507 ft | 314 kts | 90° |
| 2026-05-05 20:30 | 33.73297 | -84.37548 | 11392 ft | 299 kts | 90° |
| 2026-05-05 20:30 | 33.73296 | -84.35114 | 11267 ft | 284 kts | 90° |
| 2026-05-05 20:30 | 33.73295 | -84.32815 | 11022 ft | 276 kts | 90° |
| 2026-05-05 20:31 | 33.73294 | -84.30518 | 10652 ft | 274 kts | 90° |
| 2026-05-05 20:31 | 33.73296 | -84.28254 | 10275 ft | 269 kts | 90° |
| 2026-05-05 20:31 | 33.73299 | -84.26017 | 9805 ft | 266 kts | 91° |
| 2026-05-05 20:31 | 33.73302 | -84.23801 | 9259 ft | 264 kts | 91° |
| 2026-05-05 20:32 | 33.73305 | -84.21609 | 8729 ft | 261 kts | 91° |
| 2026-05-05 20:32 | 33.73310 | -84.19437 | 8251 ft | 257 kts | 91° |
| 2026-05-05 20:32 | 33.73295 | -84.17315 | 7749 ft | 251 kts | 100° |
| 2026-05-05 20:32 | 33.72687 | -84.15429 | 7249 ft | 237 kts | 133° |
| 2026-05-05 20:33 | 33.71432 | -84.14303 | 6814 ft | 220 kts | 165° |
| 2026-05-05 20:33 | 33.69954 | -84.14005 | 6339 ft | 214 kts | 178° |
| 2026-05-05 20:33 | 33.68474 | -84.13897 | 5800 ft | 212 kts | 182° |
| 2026-05-05 20:33 | 33.67079 | -84.14362 | 5279 ft | 210 kts | 214° |
| 2026-05-05 20:34 | 33.66177 | -84.15700 | 5015 ft | 212 kts | 246° |
| 2026-05-05 20:34 | 33.66020 | -84.17488 | 4788 ft | 222 kts | 269° |
| 2026-05-05 20:34 | 33.65945 | -84.19293 | 4478 ft | 211 kts | 252° |
| 2026-05-05 20:34 | 33.65593 | -84.20984 | 4219 ft | 208 kts | 252° |
| 2026-05-05 20:35 | 33.65277 | -84.22665 | 3945 ft | 204 kts | 253° |
| 2026-05-05 20:35 | 33.65008 | -84.24298 | 3675 ft | 203 kts | 258° |
| 2026-05-05 20:35 | 33.64956 | -84.25969 | 3431 ft | 197 kts | 265° |
| 2026-05-05 20:35 | 33.64962 | -84.27594 | 3159 ft | 193 kts | 266° |
| 2026-05-05 20:36 | 33.64968 | -84.29147 | 2956 ft | 179 kts | 264° |
| 2026-05-05 20:36 | 33.64967 | -84.30564 | 2754 ft | 163 kts | 262° |
| 2026-05-05 20:36 | 33.64960 | -84.31881 | 2471 ft | 155 kts | 262° |
| 2026-05-05 20:36 | 33.64965 | -84.33161 | 2262 ft | 151 kts | 263° |
| 2026-05-05 20:37 | 33.64969 | -84.34428 | 2041 ft | 152 kts | 261° |
| 2026-05-05 20:37 | 33.64970 | -84.35706 | 1877 ft | 154 kts | 262° |
| 2026-05-05 20:37 | 33.64965 | -84.36984 | 1697 ft | 150 kts | 260° |
| 2026-05-05 20:37 | 33.64976 | -84.38232 | 1474 ft | 150 kts | 261° |
| 2026-05-05 20:38 | 33.64954 | -84.39477 | 1245 ft | 149 kts | 264° |
| 2026-05-05 20:38 | 33.64953 | -84.40700 | 1075 ft | 147 kts | 266° |
| 2026-05-05 20:38 | 33.64952 | -84.41900 | 1006 ft | 129 kts | 268° |
| 2026-05-05 20:38 | 33.64953 | -84.42719 | 1006 ft | 69 kts | 269° |
| 2026-05-05 20:39 | 33.64946 | -84.43106 | 1005 ft | 37 kts | 262° |
| 2026-05-05 20:39 | 33.64851 | -84.43367 | 1005 ft | 30 kts | 256° |
| 2026-05-05 20:39 | 33.64796 | -84.43551 | 1006 ft | 22 kts | 209° |
| 2026-05-05 20:39 | 33.64663 | -84.43637 | 1005 ft | 21 kts | 207° |
| 2026-05-05 20:40 | 33.64531 | -84.43715 | 1005 ft | 21 kts | 195° |
| 2026-05-05 20:40 | 33.64389 | -84.43721 | 1005 ft | 20 kts | 180° |
| 2026-05-05 20:40 | 33.64252 | -84.43722 | 1005 ft | 20 kts | 180° |
| 2026-05-05 20:40 | 33.64117 | -84.43722 | 1005 ft | 19 kts | 180° |
| 2026-05-05 20:41 | 33.63999 | -84.43722 | 1005 ft | 13 kts | 180° |
| 2026-05-05 20:41 | 33.63958 | -84.43673 | 1005 ft | 6 kts | 92° |
| 2026-05-05 20:41 | 33.63958 | -84.43656 | 1005 ft | 0 kts | 91° |